Tabiona
, Tabiona
Last Weather Update:04/16/2012 10:00:00 AM
Date
ETo
ETc
Rain
Irrigation
Req
Temp
Max
Temp
Min
Temp
Avg
Avg RH
Avg Wind
Avg Solar
inches
inches
incehs
inches
F
F
F
%
%
watts/m2
03/01/2012 0.08" 0.00" 0.00" 0.00" 31.6° 16.0° 22.5° 56.4% 9.5 MPH 275.8w/m2
03/02/2012 0.08" 0.00" 0.00" 0.00" 27.3° 14.8° 20.4° 52.8% 15.0 MPH 307.8w/m2
03/03/2012 0.11" 0.00" 0.00" 0.00" 40.1° 18.6° 30.2° 53.1% 18.4 MPH 306.7w/m2
03/04/2012 0.19" 0.00" 0.00" 0.00" 57.0° 25.9° 39.0° 45.4% 8.3 MPH 365.2w/m2
03/05/2012 0.19" 0.00" 0.00" 0.00" 57.1° 18.4° 37.6° 44.8% 6.4 MPH 365.6w/m2
03/06/2012 0.11" 0.00" 0.00" 0.00" 49.2° 22.8° 36.9° 48.7% 7.7 MPH 203.8w/m2
03/07/2012 0.09" 0.00" 0.00" 0.00" 42.6° 25.9° 32.8° 56.0% 9.9 MPH 207.3w/m2
03/08/2012 0.16" 0.00" 0.00" 0.00" 48.8° 13.6° 31.8° 41.6% 5.4 MPH 357.4w/m2
03/09/2012 0.19" 0.00" 0.00" 0.00" 55.9° 22.0° 36.0° 38.1% 7.2 MPH 378.0w/m2
03/10/2012 0.24" 0.00" 0.00" 0.00" 62.1° 25.0° 40.6° 34.8% 8.3 MPH 411.0w/m2
03/11/2012 0.22" 0.00" 0.00" 0.00" 58.7° 27.0° 41.7° 34.1% 8.5 MPH 369.6w/m2
03/12/2012 0.22" 0.00" 0.00" 0.00" 57.9° 25.7° 41.5° 39.2% 5.8 MPH 392.2w/m2
03/13/2012 0.23" 0.00" 0.00" 0.00" 60.3° 25.9° 42.8° 37.5% 6.7 MPH 402.8w/m2
03/14/2012 0.23" 0.00" 0.00" 0.00" 59.6° 28.5° 43.6° 41.0% 6.7 MPH 411.5w/m2
03/15/2012 0.15" 0.00" 0.00" 0.00" 60.7° 33.9° 46.8° 45.3% 5.4 MPH 250.8w/m2
03/16/2012 0.22" 0.00" 0.00" 0.00" 62.6° 33.1° 46.8° 45.9% 6.9 MPH 380.4w/m2
03/17/2012 0.08" 0.00" 0.00" 0.00" 50.1° 34.2° 42.3° 54.9% 6.0 MPH 85.7w/m2
03/18/2012 0.06" 0.00" 0.13" -0.10" 44.2° 21.5° 33.0° 75.7% 7.0 MPH 148.5w/m2
03/19/2012 0.11" 0.00" 0.00" 0.00" 35.1° 17.8° 26.0° 62.5% 10.0 MPH 380.5w/m2
03/20/2012 0.18" 0.00" 0.00" 0.00" 45.6° 15.7° 31.1° 46.8% 8.3 MPH 400.2w/m2
03/21/2012 0.24" 0.00" 0.00" 0.00" 60.0° 24.0° 41.8° 50.2% 5.8 MPH 452.8w/m2
03/22/2012 0.28" 0.00" 0.00" 0.00" 64.7° 26.9° 44.0° 41.6% 7.6 MPH 487.5w/m2
03/23/2012 0.27" 0.00" 0.00" 0.00" 67.4° 31.2° 47.6° 40.2% 8.7 MPH 436.7w/m2
03/24/2012 0.25" 0.00" 0.00" 0.00" 63.7° 35.9° 48.9° 39.8% 6.9 MPH 412.1w/m2
03/25/2012 0.22" 0.00" 0.00" 0.00" 66.2° 35.1° 47.9° 40.0% 7.5 MPH 334.7w/m2
03/26/2012 0.10" 0.00" 0.01" -0.01" 44.6° 26.7° 35.5° 55.6% 5.6 MPH 242.7w/m2
03/27/2012 0.19" 0.00" 0.00" 0.00" 55.5° 21.3° 39.4° 50.4% 5.2 MPH 377.4w/m2
03/28/2012 0.25" 0.00" 0.00" 0.00" 63.3° 29.1° 43.4° 49.3% 8.5 MPH 424.5w/m2
03/29/2012 0.23" 0.00" 0.00" 0.00" 60.3° 29.2° 44.4° 49.5% 6.8 MPH 402.4w/m2
03/30/2012 0.30" 0.00" 0.00" 0.00" 66.2° 28.1° 47.3° 47.3% 7.3 MPH 507.0w/m2
03/31/2012 0.27" 0.00" 0.00" 0.00" 70.3° 34.7° 52.3° 40.5% 8.1 MPH 608.0w/m2
Totals: 5.75" 0.00" 0.14" -0.11" 70.3° 13.6° 39.2° 47.1% 7.9 MPH 357.6w/m2